Luke Air Force Base
KLUF : now visible

Airfield :











YOU CAN JOIN US ON...

 
LOGIN :

Register | Disclaimer

   EN    FR    IT 

 









Legend :    VFR   Marginal VFR   IFR   Intensive IFR   Very Intensive IFR
Visi :
Ceiling :
>= 8 km
>= 3000ft
5 to 8 km
1000 to 3000 ft
1500m to 5 km
500 to 1000 ft
800 to 1500m
200 to 500 ft
< 800m
< 200 ft
Symbols :   Thunderstorms  Fog  Heavy snow  Heavy precipitations  Wind > 20 kt







- Airport Elevation : 1085 ft


KLUF - Luke Air Force Base

CURRENT METAR :
  • 161258Z AUTO 20010KT 10SM CLR 10/04 A2991 RMK AO2 SLP126 T00990041 $

EXPIRED METARs :
  • 161158Z AUTO 21007KT 10SM CLR 11/04 A2991 RMK AO2 SLP125 T01090039 10134 20106 55005 $
  • 161058Z AUTO 20009KT 10SM CLR 11/05 A2991 RMK AO2 SLP125 T01090046 $
  • 160958Z AUTO 20005KT 10SM CLR 11/05 A2991 RMK AO2 SLP125 T01120046 $

TAF TAF KLUF
Valid from the 16 at 04:00 until the 17 at 10:00 UTC


160402Z 1604/1710 VRB06KT 9999 FEW100 BKN190 QNH2992INS
BECMG 1614/1615 26009KT 9999 SCT050 QNH2989INS
TEMPO 1621/1702 25012G20KT
BECMG 1702/1703 VRB06KT 9999 FEW050 SCT090 QNH2994INS TX17/1622Z TN09/1614Z LAST NO AMDS AFT 1604 NEXT 1912
KZAB FIR / North America



MET'MAP, your aeronautical weather chart ! - Copyright ORBIFLY December 2007 - Disclaimer

ORBIFLY MET'MAP TEAM :

Programming & Development : Alexandra Zaïnal
Concept & Development : Baudouin d'Aumeries
Co-Development & Prog : Marc-Olivier Méhu
Technical & hardware support : Manuel Goepfert

Contact : metmap@orbifly.com




SOURCES & CREDITS :

   NOAA       Earth
Advisory